createdAt,value
2018-02-23T00:00:05.763Z,1017.88
2018-02-23T00:01:05.739Z,1017.91
2018-02-23T00:02:05.710Z,1017.95
2018-02-23T00:03:05.680Z,1017.97
2018-02-23T00:04:05.654Z,1017.92
2018-02-23T00:05:06.279Z,1017.95
2018-02-23T00:06:05.605Z,1017.94
2018-02-23T00:07:05.577Z,1017.94
2018-02-23T00:08:51.500Z,1017.89
2018-02-23T00:09:05.534Z,1017.90
2018-02-23T00:10:05.512Z,1017.90
2018-02-23T00:11:05.783Z,1017.93
2018-02-23T00:12:05.460Z,1017.94
2018-02-23T00:13:05.430Z,1017.96
2018-02-23T00:15:05.379Z,1017.94
2018-02-23T00:16:05.352Z,1017.94
2018-02-23T00:17:05.630Z,1017.93
2018-02-23T00:19:05.280Z,1017.94
2018-02-23T00:20:05.259Z,1017.98
2018-02-23T00:21:05.238Z,1017.94
2018-02-23T00:22:05.206Z,1017.94
2018-02-23T00:23:06.682Z,1017.90
2018-02-23T00:24:05.163Z,1017.92
2018-02-23T00:25:05.129Z,1017.85
2018-02-23T00:26:05.105Z,1017.86
2018-02-23T00:27:05.093Z,1017.87
2018-02-23T00:30:05.660Z,1017.81
2018-02-23T00:31:04.988Z,1017.84
2018-02-23T00:32:04.955Z,1017.83
2018-02-23T00:33:04.941Z,1017.84
2018-02-23T00:35:04.901Z,1017.84
2018-02-23T00:36:05.163Z,1017.81
2018-02-23T00:37:04.832Z,1017.82
2018-02-23T00:38:04.807Z,1017.82
2018-02-23T00:39:04.782Z,1017.81
2018-02-23T00:40:04.760Z,1017.82
2018-02-23T00:41:04.732Z,1017.83
2018-02-23T00:42:05.009Z,1017.84
2018-02-23T00:43:04.683Z,1017.87
2018-02-23T00:44:04.661Z,1017.85
2018-02-23T00:45:04.642Z,1017.86
2018-02-23T00:46:04.615Z,1017.86
2018-02-23T00:47:04.583Z,1017.84
2018-02-23T00:49:05.197Z,1017.89
2018-02-23T00:50:04.513Z,1017.90
2018-02-23T00:51:04.486Z,1017.84
2018-02-23T00:52:04.458Z,1017.87
2018-02-23T00:53:04.433Z,1017.85
2018-02-23T00:54:04.408Z,1017.83
2018-02-23T00:55:04.684Z,1017.87
2018-02-23T00:56:04.358Z,1017.85
2018-02-23T00:57:04.336Z,1017.89
2018-02-23T00:58:04.310Z,1017.86
2018-02-23T00:59:04.291Z,1017.83
2018-02-23T01:00:04.285Z,1017.87
2018-02-23T01:01:04.537Z,1017.85
2018-02-23T01:02:04.209Z,1017.88
2018-02-23T01:03:04.190Z,1017.91
2018-02-23T01:04:04.159Z,1017.86
2018-02-23T01:05:04.133Z,1017.84
2018-02-23T01:06:04.111Z,1017.88
2018-02-23T01:07:04.538Z,1017.84
2018-02-23T01:08:04.070Z,1017.85
2018-02-23T01:10:04.011Z,1017.84
2018-02-23T01:11:03.989Z,1017.88
2018-02-23T01:12:03.967Z,1017.86
2018-02-23T01:13:04.334Z,1017.85
2018-02-23T01:14:03.910Z,1017.81
2018-02-23T01:15:03.895Z,1017.83
2018-02-23T01:16:03.893Z,1017.82
2018-02-23T01:18:03.813Z,1017.83
2018-02-23T01:19:05.294Z,1017.88
2018-02-23T01:20:03.765Z,1017.86
2018-02-23T01:21:03.736Z,1017.85
2018-02-23T01:22:03.711Z,1017.90
2018-02-23T01:23:03.688Z,1017.85
2018-02-23T01:24:03.665Z,1017.86
2018-02-23T01:27:03.935Z,1017.86
2018-02-23T01:28:03.566Z,1017.86
2018-02-23T01:29:03.536Z,1017.86
2018-02-23T01:30:03.510Z,1017.85
2018-02-23T01:31:03.486Z,1017.86
2018-02-23T01:32:03.465Z,1017.91
2018-02-23T01:33:03.735Z,1017.89
2018-02-23T01:34:03.414Z,1017.90
2018-02-23T01:35:03.391Z,1017.89
2018-02-23T01:36:03.366Z,1017.91
2018-02-23T01:37:03.334Z,1017.86
2018-02-23T01:38:03.313Z,1017.84
2018-02-23T01:39:03.638Z,1017.90
2018-02-23T01:40:03.261Z,1017.91
2018-02-23T01:41:03.232Z,1017.88
2018-02-23T01:42:03.217Z,1017.91
2018-02-23T01:43:03.187Z,1017.86
2018-02-23T01:44:03.199Z,1017.86
2018-02-23T01:46:04.614Z,1017.88
2018-02-23T01:47:03.083Z,1017.85
2018-02-23T01:48:03.060Z,1017.90
2018-02-23T01:49:03.035Z,1017.89
2018-02-23T01:50:03.024Z,1017.84
2018-02-23T01:52:03.257Z,1017.83
2018-02-23T01:53:02.934Z,1017.82
2018-02-23T01:54:02.908Z,1017.83
2018-02-23T01:55:02.885Z,1017.81
2018-02-23T01:56:02.859Z,1017.85
2018-02-23T01:57:02.834Z,1017.83
2018-02-23T01:58:03.460Z,1017.88
2018-02-23T01:59:02.784Z,1017.85
2018-02-23T02:00:02.755Z,1017.81
2018-02-23T02:01:02.734Z,1017.81
2018-02-23T02:03:02.682Z,1017.72
2018-02-23T02:04:04.162Z,1017.73
2018-02-23T02:05:02.630Z,1017.71
2018-02-23T02:07:02.582Z,1017.77
2018-02-23T02:08:02.556Z,1017.73
2018-02-23T02:10:02.809Z,1017.76
2018-02-23T02:11:02.483Z,1017.79
2018-02-23T02:12:02.459Z,1017.75
2018-02-23T02:13:02.436Z,1017.80
2018-02-23T02:14:02.407Z,1017.74
2018-02-23T02:15:02.382Z,1017.76
2018-02-23T02:16:02.704Z,1017.74
2018-02-23T02:17:02.331Z,1017.71
2018-02-23T02:18:02.306Z,1017.76
2018-02-23T02:19:02.280Z,1017.75
2018-02-23T02:20:02.253Z,1017.72
2018-02-23T02:21:02.231Z,1017.72
2018-02-23T02:22:02.510Z,1017.80
2018-02-23T02:23:02.231Z,1017.77
2018-02-23T02:24:02.156Z,1017.76
2018-02-23T02:25:02.129Z,1017.78
2018-02-23T02:26:02.103Z,1017.76
2018-02-23T02:27:02.080Z,1017.79
2018-02-23T02:28:02.356Z,1017.77
2018-02-23T02:31:02.028Z,1017.68
2018-02-23T02:32:01.956Z,1017.71
2018-02-23T02:33:01.930Z,1017.67
2018-02-23T02:34:02.151Z,1017.69
2018-02-23T02:35:01.878Z,1017.69
2018-02-23T02:36:01.860Z,1017.70
2018-02-23T02:37:01.877Z,1017.69
2018-02-23T02:38:01.801Z,1017.66
2018-02-23T02:39:01.782Z,1017.62
2018-02-23T02:40:02.052Z,1017.61
2018-02-23T02:41:01.726Z,1017.58
2018-02-23T02:42:01.699Z,1017.61
2018-02-23T02:44:01.707Z,1017.60
2018-02-23T02:45:01.628Z,1017.61
2018-02-23T02:46:01.863Z,1017.56
2018-02-23T02:47:01.575Z,1017.55
2018-02-23T02:48:01.551Z,1017.55
2018-02-23T02:51:01.833Z,1017.55
2018-02-23T02:52:01.748Z,1017.54
2018-02-23T02:53:01.436Z,1017.58
2018-02-23T02:54:01.400Z,1017.54
2018-02-23T02:55:01.373Z,1017.50
2018-02-23T02:56:01.348Z,1017.45
2018-02-23T02:57:01.373Z,1017.51
2018-02-23T02:58:01.800Z,1017.52
2018-02-23T02:59:01.273Z,1017.51
2018-02-23T03:01:01.226Z,1017.54
2018-02-23T03:02:01.202Z,1017.53
2018-02-23T03:03:01.223Z,1017.53
2018-02-23T03:05:01.418Z,1017.52
2018-02-23T03:06:01.096Z,1017.51
2018-02-23T03:07:01.072Z,1017.48
2018-02-23T03:09:01.371Z,1017.47
2018-02-23T03:10:00.991Z,1017.50
2018-02-23T03:11:01.270Z,1017.50
2018-02-23T03:12:00.940Z,1017.50
2018-02-23T03:13:00.914Z,1017.52
2018-02-23T03:16:00.889Z,1017.52
2018-02-23T03:17:01.112Z,1017.57
2018-02-23T03:18:00.786Z,1017.53
2018-02-23T03:19:00.778Z,1017.55
2018-02-23T03:20:00.786Z,1017.54
2018-02-23T03:21:00.708Z,1017.56
2018-02-23T03:22:00.684Z,1017.57
2018-02-23T03:23:00.915Z,1017.57
2018-02-23T03:24:00.640Z,1017.56
2018-02-23T03:25:00.606Z,1017.61
2018-02-23T03:26:00.629Z,1017.56
2018-02-23T03:27:00.562Z,1017.57
2018-02-23T03:28:00.529Z,1017.57
2018-02-23T03:29:00.802Z,1017.51
2018-02-23T03:30:00.479Z,1017.57
2018-02-23T03:31:00.462Z,1017.62
2018-02-23T03:32:00.471Z,1017.60
2018-02-23T03:33:00.396Z,1017.64
2018-02-23T03:34:00.372Z,1017.67
2018-02-23T03:35:00.646Z,1017.68
2018-02-23T03:36:00.320Z,1017.68
2018-02-23T03:37:00.291Z,1017.72
2018-02-23T03:38:00.313Z,1017.73
2018-02-23T03:39:00.242Z,1017.76
2018-02-23T03:40:00.212Z,1017.76
2018-02-23T03:42:00.515Z,1017.79
2018-02-23T03:43:00.135Z,1017.81
2018-02-23T03:44:00.108Z,1017.80
2018-02-23T03:45:00.090Z,1017.82
2018-02-23T03:46:00.064Z,1017.85
2018-02-23T03:47:00.028Z,1017.82
2018-02-23T03:48:00.303Z,1017.87
2018-02-23T03:48:59.979Z,1017.86
2018-02-23T03:49:59.949Z,1017.88
2018-02-23T03:50:59.923Z,1017.85
2018-02-23T03:51:59.894Z,1017.89
2018-02-23T03:52:59.870Z,1017.90
2018-02-23T03:54:01.346Z,1017.89
2018-02-23T03:54:59.824Z,1017.92
2018-02-23T03:55:59.789Z,1017.87
2018-02-23T03:57:59.741Z,1017.85
2018-02-23T03:59:59.934Z,1017.88
2018-02-23T04:00:59.658Z,1017.84
2018-02-23T04:01:59.639Z,1017.88
2018-02-23T04:03:59.628Z,1017.86
2018-02-23T04:04:59.611Z,1017.86
2018-02-23T04:05:59.774Z,1017.84
2018-02-23T04:06:59.499Z,1017.78
2018-02-23T04:07:59.473Z,1017.78
2018-02-23T04:08:59.444Z,1017.79
2018-02-23T04:09:59.418Z,1017.80
2018-02-23T04:10:59.399Z,1017.80
2018-02-23T04:11:59.616Z,1017.75
2018-02-23T04:12:59.340Z,1017.72
2018-02-23T04:13:59.324Z,1017.71
2018-02-23T04:14:59.292Z,1017.78
2018-02-23T04:15:59.259Z,1017.75
2018-02-23T04:16:59.283Z,1017.77
2018-02-23T04:17:59.508Z,1017.76
2018-02-23T04:18:59.181Z,1017.77
2018-02-23T04:19:59.154Z,1017.78
2018-02-23T04:20:59.130Z,1017.75
2018-02-23T04:21:59.105Z,1017.77
2018-02-23T04:22:59.132Z,1017.80
2018-02-23T04:23:59.308Z,1017.79
2018-02-23T04:24:59.021Z,1017.80
2018-02-23T04:25:58.997Z,1017.82
2018-02-23T04:26:59.018Z,1017.79
2018-02-23T04:27:58.950Z,1017.80
2018-02-23T04:29:59.145Z,1017.81
2018-02-23T04:30:58.886Z,1017.82
2018-02-23T04:31:58.880Z,1017.82
2018-02-23T04:32:58.808Z,1017.84
2018-02-23T04:33:58.852Z,1017.85
2018-02-23T04:34:58.838Z,1017.82
2018-02-23T04:35:59.038Z,1017.87
2018-02-23T04:36:58.708Z,1017.85
2018-02-23T04:37:58.679Z,1017.86
2018-02-23T04:38:58.649Z,1017.87
2018-02-23T04:40:58.596Z,1017.92
2018-02-23T04:41:58.819Z,1017.93
2018-02-23T04:42:58.545Z,1017.89
2018-02-23T04:43:58.515Z,1017.90
2018-02-23T04:44:58.538Z,1017.93
2018-02-23T04:46:58.432Z,1017.94
2018-02-23T04:47:58.658Z,1017.99
2018-02-23T04:48:58.430Z,1017.98
2018-02-23T04:49:58.360Z,1018.03
2018-02-23T04:50:58.329Z,1018.03
2018-02-23T04:51:58.304Z,1018.06
2018-02-23T04:52:58.279Z,1018.01
2018-02-23T04:53:58.495Z,1018.04
2018-02-23T04:54:58.274Z,1018.04
2018-02-23T04:55:58.202Z,1018.05
2018-02-23T04:56:58.171Z,1018.03
2018-02-23T04:57:58.139Z,1017.97
2018-02-23T04:58:58.116Z,1018.00
2018-02-23T04:59:58.384Z,1018.01
2018-02-23T05:00:58.108Z,1018.01
2018-02-23T05:01:58.035Z,1018.00
2018-02-23T05:02:58.007Z,1017.96
2018-02-23T05:03:57.982Z,1017.98
2018-02-23T05:04:58.116Z,1018.01
2018-02-23T05:05:58.229Z,1018.02
2018-02-23T05:06:59.147Z,1018.02
2018-02-23T05:07:57.870Z,1018.05
2018-02-23T05:08:57.845Z,1018.04
2018-02-23T05:09:57.819Z,1018.05
2018-02-23T05:10:57.796Z,1018.07
2018-02-23T05:11:58.037Z,1018.08
2018-02-23T05:12:57.739Z,1018.09
2018-02-23T05:13:57.708Z,1018.13
2018-02-23T05:14:57.684Z,1018.14
2018-02-23T05:15:57.657Z,1018.18
2018-02-23T05:16:57.632Z,1018.21
2018-02-23T05:17:57.896Z,1018.24
2018-02-23T05:18:57.623Z,1018.22
2018-02-23T05:19:57.550Z,1018.27
2018-02-23T05:20:57.569Z,1018.30
2018-02-23T05:21:57.496Z,1018.33
2018-02-23T05:22:57.467Z,1018.29
2018-02-23T05:23:57.688Z,1018.31
2018-02-23T05:24:57.416Z,1018.31
2018-02-23T05:25:57.383Z,1018.32
2018-02-23T05:26:57.411Z,1018.35
2018-02-23T05:27:57.433Z,1018.34
2018-02-23T05:28:57.400Z,1018.26
2018-02-23T05:29:57.754Z,1018.20
2018-02-23T05:30:57.279Z,1018.22
2018-02-23T05:31:57.354Z,1018.19
2018-02-23T05:32:57.330Z,1018.28
2018-02-23T05:33:57.231Z,1018.26
2018-02-23T05:34:57.138Z,1018.26
2018-02-23T05:35:57.414Z,1018.21
2018-02-23T05:36:57.085Z,1018.21
2018-02-23T05:37:57.055Z,1018.22
2018-02-23T05:38:57.052Z,1018.26
2018-02-23T05:39:57.003Z,1018.30
2018-02-23T05:40:56.976Z,1018.28
2018-02-23T05:41:57.245Z,1018.29
2018-02-23T05:42:56.920Z,1018.30
2018-02-23T05:43:56.898Z,1018.34
2018-02-23T05:44:56.914Z,1018.35
2018-02-23T05:45:56.836Z,1018.33
2018-02-23T05:46:56.815Z,1018.36
2018-02-23T05:47:57.132Z,1018.35
2018-02-23T05:48:56.838Z,1018.39
2018-02-23T05:49:57.033Z,1018.40
2018-02-23T05:50:56.866Z,1018.40
2018-02-23T05:51:56.820Z,1018.38
2018-02-23T05:52:56.727Z,1018.38
2018-02-23T05:53:57.586Z,1018.39
2018-02-23T05:54:58.061Z,1018.41
2018-02-23T05:56:56.632Z,1018.44
2018-02-23T05:57:56.512Z,1018.46
2018-02-23T05:59:56.838Z,1018.46
2018-02-23T06:01:56.392Z,1018.49
2018-02-23T06:02:56.366Z,1018.49
2018-02-23T06:03:56.339Z,1018.47
2018-02-23T06:04:56.318Z,1018.50
2018-02-23T06:05:56.438Z,1018.47
2018-02-23T06:06:56.565Z,1018.51
2018-02-23T06:07:56.233Z,1018.49
2018-02-23T06:08:56.199Z,1018.50
2018-02-23T06:09:56.194Z,1018.47
2018-02-23T06:10:56.145Z,1018.53
2018-02-23T06:11:56.174Z,1018.56
2018-02-23T06:12:56.099Z,1018.51
2018-02-23T06:13:56.361Z,1018.55
2018-02-23T06:14:56.031Z,1018.59
2018-02-23T06:15:56.003Z,1018.60
2018-02-23T06:16:55.980Z,1018.62
2018-02-23T06:17:55.995Z,1018.62
2018-02-23T06:18:55.919Z,1018.64
2018-02-23T06:19:55.894Z,1018.60
2018-02-23T06:20:56.172Z,1018.60
2018-02-23T06:21:55.838Z,1018.63
2018-02-23T06:22:55.807Z,1018.64
2018-02-23T06:23:55.826Z,1018.67
2018-02-23T06:24:55.754Z,1018.60
2018-02-23T06:25:55.721Z,1018.55
2018-02-23T06:26:55.694Z,1018.61
2018-02-23T06:27:56.064Z,1018.58
2018-02-23T06:28:55.636Z,1018.63
2018-02-23T06:29:55.612Z,1018.60
2018-02-23T06:30:55.580Z,1018.65
2018-02-23T06:31:56.571Z,1018.63
2018-02-23T06:32:55.529Z,1018.64
2018-02-23T06:33:56.531Z,1018.66
2018-02-23T06:34:55.723Z,1018.67
2018-02-23T06:35:56.200Z,1018.70
2018-02-23T06:36:55.424Z,1018.69
2018-02-23T06:37:55.387Z,1018.69
2018-02-23T06:38:55.371Z,1018.71
2018-02-23T06:39:55.381Z,1018.69
2018-02-23T06:40:55.776Z,1018.68
2018-02-23T06:41:55.275Z,1018.69
2018-02-23T06:42:55.254Z,1018.72
2018-02-23T06:43:55.239Z,1018.67
2018-02-23T06:44:55.185Z,1018.66
2018-02-23T06:45:55.214Z,1018.64
2018-02-23T06:47:55.405Z,1018.67
2018-02-23T06:48:55.073Z,1018.70
2018-02-23T06:49:55.051Z,1018.70
2018-02-23T06:50:55.019Z,1018.71
2018-02-23T06:51:56.198Z,1018.72
2018-02-23T06:52:54.963Z,1018.70
2018-02-23T06:53:54.984Z,1018.66
2018-02-23T06:54:54.907Z,1018.67
2018-02-23T06:55:54.888Z,1018.70
2018-02-23T06:56:54.848Z,1018.73
2018-02-23T06:57:54.901Z,1018.73
2018-02-23T06:58:54.796Z,1018.77
2018-02-23T06:59:55.075Z,1018.78
2018-02-23T07:00:54.739Z,1018.77
2018-02-23T07:01:54.715Z,1018.77
2018-02-23T07:02:54.682Z,1018.81
2018-02-23T07:03:54.700Z,1018.79
2018-02-23T07:04:54.628Z,1018.75
2018-02-23T07:05:54.595Z,1018.76
2018-02-23T07:06:54.824Z,1018.77
2018-02-23T07:07:54.547Z,1018.80
2018-02-23T07:08:54.539Z,1018.75
2018-02-23T07:09:54.539Z,1018.75
2018-02-23T07:10:54.516Z,1018.78
2018-02-23T07:11:54.431Z,1018.77
2018-02-23T07:12:54.655Z,1018.69
2018-02-23T07:13:54.418Z,1018.73
2018-02-23T07:14:54.346Z,1018.74
2018-02-23T07:15:54.714Z,1018.79
2018-02-23T07:17:54.265Z,1018.79
2018-02-23T07:18:54.241Z,1018.79
2018-02-23T07:19:54.507Z,1018.81
2018-02-23T07:20:54.174Z,1018.84
2018-02-23T07:21:54.197Z,1018.83
2018-02-23T07:22:54.142Z,1018.81
2018-02-23T07:23:54.096Z,1018.84
2018-02-23T07:24:54.068Z,1018.85
2018-02-23T07:25:54.344Z,1018.81
2018-02-23T07:26:54.063Z,1018.85
2018-02-23T07:28:53.960Z,1018.82
2018-02-23T07:29:53.930Z,1018.87
2018-02-23T07:30:53.911Z,1018.89
2018-02-23T07:31:53.875Z,1018.88
2018-02-23T07:32:54.159Z,1018.94
2018-02-23T07:33:53.822Z,1018.95
2018-02-23T07:34:53.794Z,1018.99
2018-02-23T07:35:53.763Z,1019.00
2018-02-23T07:36:53.741Z,1018.97
2018-02-23T07:37:53.713Z,1018.98
2018-02-23T07:38:53.739Z,1019.00
2018-02-23T07:39:53.665Z,1018.98
2018-02-23T07:40:53.629Z,1018.95
2018-02-23T07:41:53.609Z,1019.02
2018-02-23T07:42:53.576Z,1019.00
2018-02-23T07:43:53.551Z,1019.02
2018-02-23T07:44:53.577Z,1019.01
2018-02-23T07:45:53.807Z,1019.05
2018-02-23T07:46:53.474Z,1019.10
2018-02-23T07:48:53.466Z,1019.09
2018-02-23T07:49:53.441Z,1019.12
2018-02-23T07:50:53.375Z,1019.11
2018-02-23T07:51:53.441Z,1019.09
2018-02-23T07:52:53.627Z,1019.13
2018-02-23T07:53:53.291Z,1019.18
2018-02-23T07:54:53.264Z,1019.10
2018-02-23T07:55:53.291Z,1019.18
2018-02-23T07:56:53.276Z,1019.20
2018-02-23T07:57:53.238Z,1019.15
2018-02-23T07:58:53.418Z,1019.21
2018-02-23T07:59:53.288Z,1019.20
2018-02-23T08:00:53.116Z,1019.21
2018-02-23T08:01:53.093Z,1019.23
2018-02-23T08:02:53.126Z,1019.27
2018-02-23T08:03:53.092Z,1019.29
2018-02-23T08:04:53.274Z,1019.30
2018-02-23T08:05:52.994Z,1019.29
2018-02-23T08:06:52.970Z,1019.37
2018-02-23T08:07:52.968Z,1019.35
2018-02-23T08:08:52.920Z,1019.38
2018-02-23T08:09:52.951Z,1019.42
2018-02-23T08:10:53.177Z,1019.43
2018-02-23T08:11:52.849Z,1019.43
2018-02-23T08:12:52.824Z,1019.44
2018-02-23T08:13:52.802Z,1019.49
2018-02-23T08:14:52.779Z,1019.49
2018-02-23T08:15:52.804Z,1019.49
2018-02-23T08:16:53.038Z,1019.49
2018-02-23T08:17:52.708Z,1019.58
2018-02-23T08:18:52.706Z,1019.56
2018-02-23T08:19:52.667Z,1019.59
2018-02-23T08:20:52.672Z,1019.41
2018-02-23T08:21:52.778Z,1019.63
2018-02-23T08:22:52.963Z,1019.62
2018-02-23T08:23:52.571Z,1019.61
2018-02-23T08:24:53.940Z,1019.62
2018-02-23T08:25:52.528Z,1019.62
2018-02-23T08:26:52.516Z,1019.66
2018-02-23T08:27:52.546Z,1019.42
2018-02-23T08:28:52.724Z,1019.62
2018-02-23T08:29:52.438Z,1019.60
2018-02-23T08:30:52.418Z,1019.57
2018-02-23T08:31:52.390Z,1019.54
2018-02-23T08:32:52.370Z,1019.58
2018-02-23T08:33:52.396Z,1019.60
2018-02-23T08:34:52.629Z,1019.65
2018-02-23T08:35:52.352Z,1019.65
2018-02-23T08:36:52.309Z,1019.68
2018-02-23T08:37:52.259Z,1019.68
2018-02-23T08:38:52.747Z,1019.65
2018-02-23T08:39:52.428Z,1019.67
2018-02-23T08:40:52.229Z,1019.40
2018-02-23T08:41:52.182Z,1019.52
2018-02-23T08:42:52.186Z,1019.79
2018-02-23T08:43:52.227Z,1019.59
2018-02-23T08:44:52.155Z,1019.62
2018-02-23T08:45:52.186Z,1019.57
2018-02-23T08:46:52.061Z,1019.72
2018-02-23T08:47:52.340Z,1019.71
2018-02-23T08:48:52.018Z,1019.53
2018-02-23T08:49:51.999Z,1019.49
2018-02-23T08:50:52.026Z,1019.46
2018-02-23T08:51:51.955Z,1019.51
2018-02-23T08:52:51.930Z,1019.57
2018-02-23T08:53:52.208Z,1019.45
2018-02-23T08:54:51.903Z,1019.47
2018-02-23T08:55:51.865Z,1019.48
2018-02-23T08:56:51.903Z,1019.53
2018-02-23T08:57:51.822Z,1019.50
2018-02-23T08:58:51.807Z,1019.54
2018-02-23T08:59:51.780Z,1019.51
2018-02-23T09:00:52.014Z,1019.56
2018-02-23T09:01:51.736Z,1019.52
2018-02-23T09:02:51.763Z,1019.60
2018-02-23T09:03:51.700Z,1019.66
2018-02-23T09:04:51.674Z,1019.70
2018-02-23T09:05:51.656Z,1019.63
2018-02-23T09:06:51.668Z,1019.62
2018-02-23T09:07:51.908Z,1019.54
2018-02-23T09:08:51.636Z,1019.55
2018-02-23T09:09:51.559Z,1019.53
2018-02-23T09:10:51.536Z,1019.52
2018-02-23T09:11:51.514Z,1019.55
2018-02-23T09:12:51.494Z,1019.51
2018-02-23T09:13:51.470Z,1019.52
2018-02-23T09:14:51.498Z,1019.54
2018-02-23T09:15:51.534Z,1019.51
2018-02-23T09:16:51.401Z,1019.54
2018-02-23T09:17:51.430Z,1019.55
2018-02-23T09:18:51.437Z,1019.58
2018-02-23T09:19:51.591Z,1019.58
2018-02-23T09:20:51.322Z,1019.59
2018-02-23T09:21:51.383Z,1019.58
2018-02-23T09:22:51.277Z,1019.61
2018-02-23T09:23:51.593Z,1019.60
2018-02-23T09:24:51.232Z,1019.60
2018-02-23T09:25:51.506Z,1019.67
2018-02-23T09:26:51.190Z,1019.73
2018-02-23T09:27:51.166Z,1019.66
2018-02-23T09:28:51.135Z,1019.74
2018-02-23T09:29:51.215Z,1019.73
2018-02-23T09:30:51.087Z,1019.71
2018-02-23T09:31:51.356Z,1019.70
2018-02-23T09:32:51.039Z,1019.68
2018-02-23T09:33:51.012Z,1019.73
2018-02-23T09:34:50.988Z,1019.73
2018-02-23T09:35:51.011Z,1019.76
2018-02-23T09:36:50.939Z,1019.77
2018-02-23T09:37:50.935Z,1019.71
2018-02-23T09:38:50.894Z,1019.72
2018-02-23T09:39:50.869Z,1019.75
2018-02-23T09:40:50.991Z,1019.75
2018-02-23T09:41:50.819Z,1019.72
2018-02-23T09:42:50.800Z,1019.72
2018-02-23T09:43:50.776Z,1019.74
2018-02-23T09:44:50.755Z,1019.75
2018-02-23T09:45:50.745Z,1019.76
2018-02-23T09:46:50.763Z,1019.77
2018-02-23T09:47:50.675Z,1019.76
2018-02-23T09:48:50.953Z,1019.81
2018-02-23T09:49:50.629Z,1019.87
2018-02-23T09:50:50.609Z,1019.86
2018-02-23T09:51:50.588Z,1019.92
2018-02-23T09:52:50.565Z,1019.86
2018-02-23T09:53:50.547Z,1019.83
2018-02-23T09:54:50.510Z,1019.81
2018-02-23T09:55:50.496Z,1019.79
2018-02-23T09:56:50.468Z,1019.78
2018-02-23T09:57:50.444Z,1019.79
2018-02-23T09:58:50.475Z,1019.80
2018-02-23T09:59:50.390Z,1019.82
2018-02-23T10:00:50.371Z,1019.86
2018-02-23T10:01:50.342Z,1019.88
2018-02-23T10:02:50.327Z,1019.88
2018-02-23T10:03:50.311Z,1019.85
2018-02-23T10:04:50.328Z,1019.84
2018-02-23T10:05:50.247Z,1019.83
2018-02-23T10:06:50.227Z,1019.93
2018-02-23T10:07:50.201Z,1019.89
2018-02-23T10:08:50.406Z,1019.90
2018-02-23T10:09:50.160Z,1019.89
2018-02-23T10:10:50.247Z,1019.85
2018-02-23T10:11:50.416Z,1019.87
2018-02-23T10:12:50.094Z,1019.94
2018-02-23T10:13:50.081Z,1019.95
2018-02-23T10:14:50.054Z,1020.00
2018-02-23T10:15:50.027Z,1019.99
2018-02-23T10:16:50.046Z,1019.95
2018-02-23T10:17:50.280Z,1019.96
2018-02-23T10:18:49.965Z,1020.01
2018-02-23T10:19:49.995Z,1020.20
2018-02-23T10:20:49.898Z,1020.61
2018-02-23T10:21:52.543Z,1020.02
2018-02-23T10:22:50.064Z,1020.00
2018-02-23T10:23:50.312Z,1019.98
2018-02-23T10:24:50.080Z,1019.94
2018-02-23T10:25:52.991Z,1019.90
2018-02-23T10:26:49.775Z,1019.90
2018-02-23T10:27:49.958Z,1019.85
2018-02-23T10:28:49.731Z,1019.78
2018-02-23T10:29:50.014Z,1019.80
2018-02-23T10:30:49.766Z,1019.92
2018-02-23T10:31:49.654Z,1019.80
2018-02-23T10:32:49.700Z,1019.83
2018-02-23T10:33:49.606Z,1019.89
2018-02-23T10:34:49.586Z,1019.84
2018-02-23T10:35:49.863Z,1019.90
2018-02-23T10:36:49.602Z,1020.00
2018-02-23T10:37:49.515Z,1019.97
2018-02-23T10:38:50.227Z,1019.93
2018-02-23T10:39:49.469Z,1019.93
2018-02-23T10:40:49.454Z,1019.90
2018-02-23T10:41:49.427Z,1019.85
2018-02-23T10:42:49.452Z,1019.87
2018-02-23T10:43:49.389Z,1019.88
2018-02-23T10:44:49.357Z,1020.05
2018-02-23T10:45:49.335Z,1020.48
2018-02-23T10:46:49.462Z,1020.76
2018-02-23T10:47:49.294Z,1020.72
2018-02-23T10:48:49.274Z,1020.41
2018-02-23T10:49:49.246Z,1019.92
2018-02-23T10:50:49.224Z,1019.90
2018-02-23T10:51:49.198Z,1019.95
2018-02-23T10:52:49.182Z,1019.87
2018-02-23T10:53:49.163Z,1019.88
2018-02-23T10:54:49.135Z,1019.88
2018-02-23T10:55:49.115Z,1019.91
2018-02-23T10:56:49.095Z,1019.86
2018-02-23T10:57:49.077Z,1019.87
2018-02-23T10:58:49.104Z,1019.84
2018-02-23T10:59:49.087Z,1019.91
2018-02-23T11:00:49.016Z,1020.65
2018-02-23T11:01:48.986Z,1019.99
2018-02-23T11:02:48.965Z,1019.80
2018-02-23T11:03:48.946Z,1019.82
2018-02-23T11:04:48.929Z,1020.52
2018-02-23T11:05:49.251Z,1019.93
2018-02-23T11:06:49.037Z,1020.28
2018-02-23T11:07:48.891Z,1020.33
2018-02-23T11:08:48.874Z,1020.07
2018-02-23T11:09:48.839Z,1020.35
2018-02-23T11:10:48.818Z,1020.21
2018-02-23T11:11:48.787Z,1020.28
2018-02-23T11:12:49.178Z,1020.01
2018-02-23T11:13:48.896Z,1020.32
2018-02-23T11:14:48.724Z,1020.29
2018-02-23T11:15:48.717Z,1020.44
2018-02-23T11:16:48.674Z,1020.61
2018-02-23T11:17:48.674Z,1020.60
2018-02-23T11:18:48.698Z,1020.54
2018-02-23T11:19:48.622Z,1020.50
2018-02-23T11:20:48.596Z,1019.81
2018-02-23T11:21:48.593Z,1020.49
2018-02-23T11:22:48.559Z,1020.50
2018-02-23T11:23:48.593Z,1020.48
2018-02-23T11:24:48.529Z,1020.02
2018-02-23T11:25:48.508Z,1020.50
2018-02-23T11:26:48.491Z,1020.44
2018-02-23T11:27:48.468Z,1020.39
2018-02-23T11:28:48.756Z,1020.39
2018-02-23T11:29:48.597Z,1020.40
2018-02-23T11:30:48.419Z,1020.32
2018-02-23T11:31:48.414Z,1020.38
2018-02-23T11:32:48.413Z,1020.36
2018-02-23T11:33:48.376Z,1020.43
2018-02-23T11:34:48.353Z,1020.31
2018-02-23T11:35:49.886Z,1019.82
2018-02-23T11:36:48.317Z,1020.28
2018-02-23T11:37:48.310Z,1020.28
2018-02-23T11:38:48.288Z,1019.75
2018-02-23T11:39:48.278Z,1020.04
2018-02-23T11:40:48.257Z,1020.31
2018-02-23T11:41:48.459Z,1020.33
2018-02-23T11:42:48.223Z,1020.32
2018-02-23T11:43:48.213Z,1020.31
2018-02-23T11:44:48.191Z,1019.80
2018-02-23T11:45:48.180Z,1020.24
2018-02-23T11:46:48.464Z,1020.31
2018-02-23T11:47:48.198Z,1020.41
2018-02-23T11:48:48.142Z,1020.36
2018-02-23T11:49:48.115Z,1020.33
2018-02-23T11:50:48.104Z,1019.88
2018-02-23T11:51:48.085Z,1019.99
2018-02-23T11:52:48.628Z,1020.32
2018-02-23T11:53:48.359Z,1020.28
2018-02-23T11:54:48.077Z,1020.30
2018-02-23T11:55:48.052Z,1020.41
2018-02-23T11:56:48.035Z,1020.35
2018-02-23T11:57:48.026Z,1020.35
2018-02-23T11:58:48.533Z,1020.31
2018-02-23T11:59:50.123Z,1020.36
2018-02-23T12:00:48.003Z,1020.31
2018-02-23T12:01:48.395Z,1020.35
2018-02-23T12:02:47.931Z,1020.34
2018-02-23T12:03:48.020Z,1020.30
2018-02-23T12:04:48.214Z,1020.27
2018-02-23T12:05:47.899Z,1020.30
2018-02-23T12:06:47.882Z,1020.10
2018-02-23T12:07:49.145Z,1019.92
2018-02-23T12:08:47.854Z,1019.97
2018-02-23T12:09:47.837Z,1020.01
2018-02-23T12:10:48.137Z,1019.70
2018-02-23T12:11:47.809Z,1019.69
2018-02-23T12:12:47.904Z,1019.98
2018-02-23T12:13:47.835Z,1020.20
2018-02-23T12:14:47.779Z,1019.76
2018-02-23T12:15:47.817Z,1019.80
2018-02-23T12:16:48.126Z,1020.25
2018-02-23T12:17:47.777Z,1020.21
2018-02-23T12:18:47.895Z,1020.34
2018-02-23T12:19:48.161Z,1020.25
2018-02-23T12:20:47.713Z,1020.02
2018-02-23T12:21:47.710Z,1020.03
2018-02-23T12:22:47.965Z,1020.28
2018-02-23T12:23:47.644Z,1020.32
2018-02-23T12:24:47.630Z,1019.96
2018-02-23T12:25:47.665Z,1020.23
2018-02-23T12:26:47.617Z,1020.23
2018-02-23T12:27:47.584Z,1020.27
2018-02-23T12:28:47.570Z,1020.21
2018-02-23T12:29:47.643Z,1019.87
2018-02-23T12:30:47.684Z,1020.11
2018-02-23T12:31:47.926Z,1020.08
2018-02-23T12:32:47.774Z,1020.10
2018-02-23T12:33:48.044Z,1020.05
2018-02-23T12:34:47.911Z,1020.01
2018-02-23T12:35:47.567Z,1019.73
2018-02-23T12:36:47.490Z,1019.61
2018-02-23T12:37:47.507Z,1019.52
2018-02-23T12:39:47.421Z,1019.96
2018-02-23T12:40:47.417Z,1019.58
2018-02-23T12:41:47.394Z,1019.90
2018-02-23T12:42:47.433Z,1019.87
2018-02-23T12:43:47.370Z,1019.90
2018-02-23T12:44:47.365Z,1019.50